sensor_id;sensor_type;location;lat;lon;timestamp;temperature;humidity
27741;DHT22;15134;48.768;9.184;2024-01-06T00:01:41;7.60;99.90
27741;DHT22;15134;48.768;9.184;2024-01-06T00:04:07;7.60;99.90
27741;DHT22;15134;48.768;9.184;2024-01-06T00:06:33;7.70;99.90
27741;DHT22;15134;48.768;9.184;2024-01-06T00:08:58;7.70;99.90
27741;DHT22;15134;48.768;9.184;2024-01-06T00:11:24;7.70;99.90
27741;DHT22;15134;48.768;9.184;2024-01-06T00:13:50;7.70;99.90
27741;DHT22;15134;48.768;9.184;2024-01-06T00:16:17;7.70;99.90
27741;DHT22;15134;48.768;9.184;2024-01-06T00:18:44;7.70;99.90
27741;DHT22;15134;48.768;9.184;2024-01-06T00:21:10;7.70;99.90
27741;DHT22;15134;48.768;9.184;2024-01-06T00:23:36;7.70;99.90
27741;DHT22;15134;48.768;9.184;2024-01-06T00:26:01;7.70;99.90
27741;DHT22;15134;48.768;9.184;2024-01-06T00:28:28;7.70;99.90
27741;DHT22;15134;48.768;9.184;2024-01-06T00:30:53;7.70;99.90
27741;DHT22;15134;48.768;9.184;2024-01-06T00:33:19;7.70;99.90
27741;DHT22;15134;48.768;9.184;2024-01-06T00:35:45;7.70;99.90
27741;DHT22;15134;48.768;9.184;2024-01-06T00:38:11;7.70;99.90
27741;DHT22;15134;48.768;9.184;2024-01-06T00:40:37;7.70;99.90
27741;DHT22;15134;48.768;9.184;2024-01-06T00:43:02;7.70;99.90
27741;DHT22;15134;48.768;9.184;2024-01-06T00:45:28;7.70;99.90
27741;DHT22;15134;48.768;9.184;2024-01-06T00:47:54;7.60;99.90
27741;DHT22;15134;48.768;9.184;2024-01-06T00:50:20;7.60;99.90
27741;DHT22;15134;48.768;9.184;2024-01-06T00:52:45;7.60;99.90
27741;DHT22;15134;48.768;9.184;2024-01-06T00:55:11;7.60;99.90
27741;DHT22;15134;48.768;9.184;2024-01-06T00:57:37;7.60;99.90
27741;DHT22;15134;48.768;9.184;2024-01-06T01:00:06;7.60;99.90
27741;DHT22;15134;48.768;9.184;2024-01-06T01:02:32;7.60;99.90
27741;DHT22;15134;48.768;9.184;2024-01-06T01:04:58;7.50;99.90
27741;DHT22;15134;48.768;9.184;2024-01-06T01:07:24;7.50;99.90
27741;DHT22;15134;48.768;9.184;2024-01-06T01:09:50;7.50;99.90
27741;DHT22;15134;48.768;9.184;2024-01-06T01:12:15;7.50;99.90
27741;DHT22;15134;48.768;9.184;2024-01-06T01:14:41;7.50;99.90
27741;DHT22;15134;48.768;9.184;2024-01-06T01:17:07;7.50;99.90
27741;DHT22;15134;48.768;9.184;2024-01-06T01:19:33;7.50;99.90
27741;DHT22;15134;48.768;9.184;2024-01-06T01:21:58;7.50;99.90
27741;DHT22;15134;48.768;9.184;2024-01-06T01:24:24;7.50;99.90
27741;DHT22;15134;48.768;9.184;2024-01-06T01:26:50;7.50;99.90
27741;DHT22;15134;48.768;9.184;2024-01-06T01:29:19;7.50;99.90
27741;DHT22;15134;48.768;9.184;2024-01-06T01:31:46;7.50;99.90
27741;DHT22;15134;48.768;9.184;2024-01-06T01:34:12;7.40;99.90
27741;DHT22;15134;48.768;9.184;2024-01-06T01:36:38;7.40;99.90
27741;DHT22;15134;48.768;9.184;2024-01-06T01:39:04;7.40;99.90
27741;DHT22;15134;48.768;9.184;2024-01-06T01:41:30;7.40;99.90
27741;DHT22;15134;48.768;9.184;2024-01-06T01:43:55;7.40;99.90
27741;DHT22;15134;48.768;9.184;2024-01-06T01:46:25;7.50;99.90
27741;DHT22;15134;48.768;9.184;2024-01-06T01:48:52;7.40;99.90
27741;DHT22;15134;48.768;9.184;2024-01-06T01:51:19;7.40;99.90
27741;DHT22;15134;48.768;9.184;2024-01-06T01:53:45;7.40;99.90
27741;DHT22;15134;48.768;9.184;2024-01-06T01:56:11;7.40;99.90
27741;DHT22;15134;48.768;9.184;2024-01-06T01:58:38;7.40;99.90
27741;DHT22;15134;48.768;9.184;2024-01-06T02:01:04;7.40;99.90
27741;DHT22;15134;48.768;9.184;2024-01-06T02:03:30;7.40;99.90
27741;DHT22;15134;48.768;9.184;2024-01-06T02:05:56;7.40;99.90
27741;DHT22;15134;48.768;9.184;2024-01-06T02:08:22;7.40;99.90
27741;DHT22;15134;48.768;9.184;2024-01-06T02:10:47;7.40;99.90
27741;DHT22;15134;48.768;9.184;2024-01-06T02:13:13;7.40;99.90
27741;DHT22;15134;48.768;9.184;2024-01-06T02:15:39;7.40;99.90
27741;DHT22;15134;48.768;9.184;2024-01-06T02:18:05;7.40;99.90
27741;DHT22;15134;48.768;9.184;2024-01-06T02:20:31;7.40;99.90
27741;DHT22;15134;48.768;9.184;2024-01-06T02:22:57;7.40;99.90
27741;DHT22;15134;48.768;9.184;2024-01-06T02:25:25;7.40;99.90
27741;DHT22;15134;48.768;9.184;2024-01-06T02:27:50;7.40;99.90
27741;DHT22;15134;48.768;9.184;2024-01-06T02:30:16;7.40;99.90
27741;DHT22;15134;48.768;9.184;2024-01-06T02:32:42;7.40;99.90
27741;DHT22;15134;48.768;9.184;2024-01-06T02:35:08;7.40;99.90
27741;DHT22;15134;48.768;9.184;2024-01-06T02:37:33;7.40;99.90
27741;DHT22;15134;48.768;9.184;2024-01-06T02:39:59;7.40;99.90
27741;DHT22;15134;48.768;9.184;2024-01-06T02:42:25;7.40;99.90
27741;DHT22;15134;48.768;9.184;2024-01-06T02:44:51;7.40;99.90
27741;DHT22;15134;48.768;9.184;2024-01-06T02:47:17;7.30;99.90
27741;DHT22;15134;48.768;9.184;2024-01-06T02:49:43;7.30;99.90
27741;DHT22;15134;48.768;9.184;2024-01-06T02:52:08;7.40;99.90
27741;DHT22;15134;48.768;9.184;2024-01-06T02:54:34;7.30;99.90
27741;DHT22;15134;48.768;9.184;2024-01-06T02:57:00;7.30;99.90
27741;DHT22;15134;48.768;9.184;2024-01-06T02:59:25;7.30;99.90
27741;DHT22;15134;48.768;9.184;2024-01-06T03:01:51;7.30;99.90
27741;DHT22;15134;48.768;9.184;2024-01-06T03:04:17;7.30;99.90
27741;DHT22;15134;48.768;9.184;2024-01-06T03:06:43;7.30;99.90
27741;DHT22;15134;48.768;9.184;2024-01-06T03:09:08;7.30;99.90
27741;DHT22;15134;48.768;9.184;2024-01-06T03:11:34;7.30;99.90
27741;DHT22;15134;48.768;9.184;2024-01-06T03:14:00;7.30;99.90
27741;DHT22;15134;48.768;9.184;2024-01-06T03:16:25;7.20;99.90
27741;DHT22;15134;48.768;9.184;2024-01-06T03:18:51;7.20;99.90
27741;DHT22;15134;48.768;9.184;2024-01-06T03:21:20;7.20;99.90
27741;DHT22;15134;48.768;9.184;2024-01-06T03:23:47;7.20;99.90
27741;DHT22;15134;48.768;9.184;2024-01-06T03:26:13;7.20;99.90
27741;DHT22;15134;48.768;9.184;2024-01-06T03:28:39;7.20;99.90
27741;DHT22;15134;48.768;9.184;2024-01-06T03:31:05;7.20;99.90
27741;DHT22;15134;48.768;9.184;2024-01-06T03:33:31;7.20;99.90
27741;DHT22;15134;48.768;9.184;2024-01-06T03:35:57;7.20;99.90
27741;DHT22;15134;48.768;9.184;2024-01-06T03:38:23;7.10;99.90
27741;DHT22;15134;48.768;9.184;2024-01-06T03:40:49;7.10;99.90
27741;DHT22;15134;48.768;9.184;2024-01-06T03:43:14;7.10;99.90
27741;DHT22;15134;48.768;9.184;2024-01-06T03:45:40;7.10;99.90
27741;DHT22;15134;48.768;9.184;2024-01-06T03:48:06;7.10;99.90
27741;DHT22;15134;48.768;9.184;2024-01-06T03:50:32;7.10;99.90
27741;DHT22;15134;48.768;9.184;2024-01-06T03:52:58;7.00;99.90
27741;DHT22;15134;48.768;9.184;2024-01-06T03:55:23;7.10;99.90
27741;DHT22;15134;48.768;9.184;2024-01-06T03:57:49;7.10;99.90
27741;DHT22;15134;48.768;9.184;2024-01-06T04:00:15;7.10;99.90
27741;DHT22;15134;48.768;9.184;2024-01-06T04:02:41;7.10;99.90
27741;DHT22;15134;48.768;9.184;2024-01-06T04:05:07;7.10;99.90
27741;DHT22;15134;48.768;9.184;2024-01-06T04:07:33;7.20;99.90
27741;DHT22;15134;48.768;9.184;2024-01-06T04:09:58;7.10;99.90
27741;DHT22;15134;48.768;9.184;2024-01-06T04:12:24;7.10;99.90
27741;DHT22;15134;48.768;9.184;2024-01-06T04:14:50;7.10;99.90
27741;DHT22;15134;48.768;9.184;2024-01-06T04:17:16;7.10;99.90
27741;DHT22;15134;48.768;9.184;2024-01-06T04:19:41;7.10;99.90
27741;DHT22;15134;48.768;9.184;2024-01-06T04:22:07;7.00;99.90
27741;DHT22;15134;48.768;9.184;2024-01-06T04:24:33;7.00;99.90
27741;DHT22;15134;48.768;9.184;2024-01-06T04:27:03;7.00;99.90
27741;DHT22;15134;48.768;9.184;2024-01-06T04:29:30;7.00;99.90
27741;DHT22;15134;48.768;9.184;2024-01-06T04:31:55;7.00;99.90
27741;DHT22;15134;48.768;9.184;2024-01-06T04:34:21;7.00;99.90
27741;DHT22;15134;48.768;9.184;2024-01-06T04:36:47;7.00;99.90
27741;DHT22;15134;48.768;9.184;2024-01-06T04:39:14;7.00;99.90
27741;DHT22;15134;48.768;9.184;2024-01-06T04:41:40;7.00;99.90
27741;DHT22;15134;48.768;9.184;2024-01-06T04:44:06;7.00;99.90
27741;DHT22;15134;48.768;9.184;2024-01-06T04:46:32;6.90;99.90
27741;DHT22;15134;48.768;9.184;2024-01-06T04:48:58;6.90;99.90
27741;DHT22;15134;48.768;9.184;2024-01-06T04:51:24;6.90;99.90
27741;DHT22;15134;48.768;9.184;2024-01-06T04:53:50;7.00;99.90
27741;DHT22;15134;48.768;9.184;2024-01-06T04:56:16;7.00;99.90
27741;DHT22;15134;48.768;9.184;2024-01-06T04:58:42;7.00;99.90
27741;DHT22;15134;48.768;9.184;2024-01-06T05:01:07;7.00;99.90
27741;DHT22;15134;48.768;9.184;2024-01-06T05:03:33;7.00;99.90
27741;DHT22;15134;48.768;9.184;2024-01-06T05:05:59;6.90;99.90
27741;DHT22;15134;48.768;9.184;2024-01-06T05:08:25;6.90;99.90
27741;DHT22;15134;48.768;9.184;2024-01-06T05:10:52;6.90;99.90
27741;DHT22;15134;48.768;9.184;2024-01-06T05:13:19;6.90;99.90
27741;DHT22;15134;48.768;9.184;2024-01-06T05:15:45;6.90;99.90
27741;DHT22;15134;48.768;9.184;2024-01-06T05:18:10;6.90;99.90
27741;DHT22;15134;48.768;9.184;2024-01-06T05:20:36;6.90;99.90
27741;DHT22;15134;48.768;9.184;2024-01-06T05:23:02;6.90;99.90
27741;DHT22;15134;48.768;9.184;2024-01-06T05:25:28;6.90;99.90
27741;DHT22;15134;48.768;9.184;2024-01-06T05:27:53;6.90;99.90
27741;DHT22;15134;48.768;9.184;2024-01-06T05:30:19;6.90;99.90
27741;DHT22;15134;48.768;9.184;2024-01-06T05:32:45;6.90;99.90
27741;DHT22;15134;48.768;9.184;2024-01-06T05:35:11;6.90;99.90
27741;DHT22;15134;48.768;9.184;2024-01-06T05:37:37;6.90;99.90
27741;DHT22;15134;48.768;9.184;2024-01-06T05:40:03;6.90;99.90
27741;DHT22;15134;48.768;9.184;2024-01-06T05:42:30;6.90;99.90
27741;DHT22;15134;48.768;9.184;2024-01-06T05:44:56;7.00;99.90
27741;DHT22;15134;48.768;9.184;2024-01-06T05:47:22;7.00;99.90
27741;DHT22;15134;48.768;9.184;2024-01-06T05:49:48;7.00;99.90
27741;DHT22;15134;48.768;9.184;2024-01-06T05:52:15;7.00;99.90
27741;DHT22;15134;48.768;9.184;2024-01-06T05:54:41;7.00;99.90
27741;DHT22;15134;48.768;9.184;2024-01-06T05:57:10;7.10;99.90
27741;DHT22;15134;48.768;9.184;2024-01-06T05:59:37;7.00;99.90
27741;DHT22;15134;48.768;9.184;2024-01-06T06:02:03;7.00;99.90
27741;DHT22;15134;48.768;9.184;2024-01-06T06:04:29;7.00;99.90
27741;DHT22;15134;48.768;9.184;2024-01-06T06:06:55;7.00;99.90
27741;DHT22;15134;48.768;9.184;2024-01-06T06:09:23;7.00;99.90
27741;DHT22;15134;48.768;9.184;2024-01-06T06:11:49;7.00;99.90
27741;DHT22;15134;48.768;9.184;2024-01-06T06:14:15;7.10;99.90
27741;DHT22;15134;48.768;9.184;2024-01-06T06:16:41;7.00;99.90
27741;DHT22;15134;48.768;9.184;2024-01-06T06:19:07;7.00;99.90
27741;DHT22;15134;48.768;9.184;2024-01-06T06:21:33;7.00;99.90
27741;DHT22;15134;48.768;9.184;2024-01-06T06:23:59;7.00;99.90
27741;DHT22;15134;48.768;9.184;2024-01-06T06:26:26;7.00;99.90
27741;DHT22;15134;48.768;9.184;2024-01-06T06:28:55;7.00;99.90
27741;DHT22;15134;48.768;9.184;2024-01-06T06:31:21;7.00;99.90
27741;DHT22;15134;48.768;9.184;2024-01-06T06:33:47;7.10;99.90
27741;DHT22;15134;48.768;9.184;2024-01-06T06:36:13;7.10;99.90
27741;DHT22;15134;48.768;9.184;2024-01-06T06:38:39;7.10;99.90
27741;DHT22;15134;48.768;9.184;2024-01-06T06:41:05;7.10;99.90
27741;DHT22;15134;48.768;9.184;2024-01-06T06:43:32;7.10;99.90
27741;DHT22;15134;48.768;9.184;2024-01-06T06:45:58;7.10;99.90
27741;DHT22;15134;48.768;9.184;2024-01-06T06:48:24;7.00;99.90
27741;DHT22;15134;48.768;9.184;2024-01-06T06:50:50;7.00;99.90
27741;DHT22;15134;48.768;9.184;2024-01-06T06:53:15;7.00;99.90
27741;DHT22;15134;48.768;9.184;2024-01-06T06:55:41;7.00;99.90
27741;DHT22;15134;48.768;9.184;2024-01-06T06:58:07;7.00;99.90
27741;DHT22;15134;48.768;9.184;2024-01-06T07:00:34;7.00;99.90
27741;DHT22;15134;48.768;9.184;2024-01-06T07:03:00;7.00;99.90
27741;DHT22;15134;48.768;9.184;2024-01-06T07:05:26;7.00;99.90
27741;DHT22;15134;48.768;9.184;2024-01-06T07:07:52;7.00;99.90
27741;DHT22;15134;48.768;9.184;2024-01-06T07:10:18;7.00;99.90
27741;DHT22;15134;48.768;9.184;2024-01-06T07:12:43;7.00;99.90
27741;DHT22;15134;48.768;9.184;2024-01-06T07:15:09;7.00;99.90
27741;DHT22;15134;48.768;9.184;2024-01-06T07:17:36;7.00;99.90
27741;DHT22;15134;48.768;9.184;2024-01-06T07:20:05;7.00;99.90
27741;DHT22;15134;48.768;9.184;2024-01-06T07:22:33;7.00;99.90
27741;DHT22;15134;48.768;9.184;2024-01-06T07:25:00;7.00;99.90
27741;DHT22;15134;48.768;9.184;2024-01-06T07:27:26;7.00;99.90
27741;DHT22;15134;48.768;9.184;2024-01-06T07:29:52;7.00;99.90
27741;DHT22;15134;48.768;9.184;2024-01-06T07:32:18;7.00;99.90
27741;DHT22;15134;48.768;9.184;2024-01-06T07:34:43;6.90;99.90
27741;DHT22;15134;48.768;9.184;2024-01-06T07:37:09;6.90;99.90
27741;DHT22;15134;48.768;9.184;2024-01-06T07:39:35;6.90;99.90
27741;DHT22;15134;48.768;9.184;2024-01-06T07:42:00;6.90;99.90
27741;DHT22;15134;48.768;9.184;2024-01-06T07:44:28;6.90;99.90
27741;DHT22;15134;48.768;9.184;2024-01-06T07:46:53;6.90;99.90
27741;DHT22;15134;48.768;9.184;2024-01-06T07:49:19;6.90;99.90
27741;DHT22;15134;48.768;9.184;2024-01-06T07:51:45;6.90;99.90
27741;DHT22;15134;48.768;9.184;2024-01-06T07:54:11;6.90;99.90
27741;DHT22;15134;48.768;9.184;2024-01-06T07:56:37;6.90;99.90
27741;DHT22;15134;48.768;9.184;2024-01-06T07:59:03;7.00;99.90
27741;DHT22;15134;48.768;9.184;2024-01-06T08:01:30;7.00;99.90
27741;DHT22;15134;48.768;9.184;2024-01-06T08:03:56;7.00;99.90
27741;DHT22;15134;48.768;9.184;2024-01-06T08:06:21;7.00;99.90
27741;DHT22;15134;48.768;9.184;2024-01-06T08:08:47;7.10;99.90
27741;DHT22;15134;48.768;9.184;2024-01-06T08:11:13;7.10;99.90
27741;DHT22;15134;48.768;9.184;2024-01-06T08:13:38;7.10;99.90
27741;DHT22;15134;48.768;9.184;2024-01-06T08:16:04;7.10;99.90
27741;DHT22;15134;48.768;9.184;2024-01-06T08:18:31;7.10;99.90
27741;DHT22;15134;48.768;9.184;2024-01-06T08:20:57;7.20;99.90
27741;DHT22;15134;48.768;9.184;2024-01-06T08:23:23;7.20;99.90
27741;DHT22;15134;48.768;9.184;2024-01-06T08:25:49;7.20;99.90
27741;DHT22;15134;48.768;9.184;2024-01-06T08:28:15;7.10;99.90
27741;DHT22;15134;48.768;9.184;2024-01-06T08:30:41;7.20;99.90
27741;DHT22;15134;48.768;9.184;2024-01-06T08:33:08;7.20;99.90
27741;DHT22;15134;48.768;9.184;2024-01-06T08:35:33;7.10;99.90
27741;DHT22;15134;48.768;9.184;2024-01-06T08:37:59;7.20;99.90
27741;DHT22;15134;48.768;9.184;2024-01-06T08:40:25;7.20;99.90
27741;DHT22;15134;48.768;9.184;2024-01-06T08:42:51;7.20;99.90
27741;DHT22;15134;48.768;9.184;2024-01-06T08:45:17;7.20;99.90
27741;DHT22;15134;48.768;9.184;2024-01-06T08:47:43;7.20;99.90
27741;DHT22;15134;48.768;9.184;2024-01-06T08:50:09;7.20;99.90
27741;DHT22;15134;48.768;9.184;2024-01-06T08:52:35;7.20;99.90
27741;DHT22;15134;48.768;9.184;2024-01-06T08:55:01;7.30;99.90
27741;DHT22;15134;48.768;9.184;2024-01-06T08:57:27;7.30;99.90
27741;DHT22;15134;48.768;9.184;2024-01-06T08:59:52;7.30;99.90
27741;DHT22;15134;48.768;9.184;2024-01-06T09:02:18;7.40;99.90
27741;DHT22;15134;48.768;9.184;2024-01-06T09:04:44;7.40;99.90
27741;DHT22;15134;48.768;9.184;2024-01-06T09:07:10;7.40;99.90
27741;DHT22;15134;48.768;9.184;2024-01-06T09:09:36;7.30;99.90
27741;DHT22;15134;48.768;9.184;2024-01-06T09:12:01;7.30;99.90
27741;DHT22;15134;48.768;9.184;2024-01-06T09:14:28;7.30;99.90
27741;DHT22;15134;48.768;9.184;2024-01-06T09:16:55;7.30;99.90
27741;DHT22;15134;48.768;9.184;2024-01-06T09:19:21;7.30;99.90
27741;DHT22;15134;48.768;9.184;2024-01-06T09:21:47;7.40;99.90
27741;DHT22;15134;48.768;9.184;2024-01-06T09:24:13;7.40;99.90
27741;DHT22;15134;48.768;9.184;2024-01-06T09:26:39;7.50;99.90
27741;DHT22;15134;48.768;9.184;2024-01-06T09:29:05;7.50;99.90
27741;DHT22;15134;48.768;9.184;2024-01-06T09:31:31;7.50;99.90
27741;DHT22;15134;48.768;9.184;2024-01-06T09:34:00;7.60;99.90
27741;DHT22;15134;48.768;9.184;2024-01-06T09:36:28;7.70;99.90
27741;DHT22;15134;48.768;9.184;2024-01-06T09:38:54;7.80;99.90
27741;DHT22;15134;48.768;9.184;2024-01-06T09:41:23;7.80;99.90
27741;DHT22;15134;48.768;9.184;2024-01-06T09:43:50;7.80;99.90
27741;DHT22;15134;48.768;9.184;2024-01-06T09:46:27;7.80;99.90
27741;DHT22;15134;48.768;9.184;2024-01-06T09:48:54;7.90;99.90
27741;DHT22;15134;48.768;9.184;2024-01-06T09:51:22;8.00;99.90
27741;DHT22;15134;48.768;9.184;2024-01-06T09:53:53;8.00;99.90
27741;DHT22;15134;48.768;9.184;2024-01-06T09:56:23;8.10;99.90
27741;DHT22;15134;48.768;9.184;2024-01-06T09:58:50;8.20;99.90
27741;DHT22;15134;48.768;9.184;2024-01-06T10:01:17;8.20;99.90
27741;DHT22;15134;48.768;9.184;2024-01-06T10:03:43;8.30;99.90
27741;DHT22;15134;48.768;9.184;2024-01-06T10:06:11;8.20;99.90
27741;DHT22;15134;48.768;9.184;2024-01-06T10:08:37;8.20;99.90
27741;DHT22;15134;48.768;9.184;2024-01-06T10:11:06;8.10;99.90
27741;DHT22;15134;48.768;9.184;2024-01-06T10:13:38;8.10;99.90
27741;DHT22;15134;48.768;9.184;2024-01-06T10:16:05;8.10;99.90
27741;DHT22;15134;48.768;9.184;2024-01-06T10:18:31;8.10;99.90
27741;DHT22;15134;48.768;9.184;2024-01-06T10:20:58;7.90;99.90
27741;DHT22;15134;48.768;9.184;2024-01-06T10:23:27;7.70;99.90
27741;DHT22;15134;48.768;9.184;2024-01-06T10:25:56;7.70;99.90
27741;DHT22;15134;48.768;9.184;2024-01-06T10:28:22;7.70;99.90
27741;DHT22;15134;48.768;9.184;2024-01-06T10:30:51;7.70;99.90
27741;DHT22;15134;48.768;9.184;2024-01-06T10:33:17;7.80;99.90
27741;DHT22;15134;48.768;9.184;2024-01-06T10:35:43;7.90;99.90
27741;DHT22;15134;48.768;9.184;2024-01-06T10:38:10;8.00;99.90
27741;DHT22;15134;48.768;9.184;2024-01-06T10:40:36;8.00;99.90
27741;DHT22;15134;48.768;9.184;2024-01-06T10:43:03;8.10;99.90
27741;DHT22;15134;48.768;9.184;2024-01-06T10:45:33;8.10;99.90
27741;DHT22;15134;48.768;9.184;2024-01-06T10:48:05;8.00;99.90
27741;DHT22;15134;48.768;9.184;2024-01-06T10:50:31;7.90;99.90
27741;DHT22;15134;48.768;9.184;2024-01-06T10:52:58;7.90;99.90
27741;DHT22;15134;48.768;9.184;2024-01-06T10:55:26;8.00;99.90
27741;DHT22;15134;48.768;9.184;2024-01-06T10:57:53;7.90;99.90
27741;DHT22;15134;48.768;9.184;2024-01-06T11:00:19;8.00;99.90
27741;DHT22;15134;48.768;9.184;2024-01-06T11:02:46;8.00;99.90
27741;DHT22;15134;48.768;9.184;2024-01-06T11:05:13;7.90;99.90
27741;DHT22;15134;48.768;9.184;2024-01-06T11:07:40;7.80;99.90
27741;DHT22;15134;48.768;9.184;2024-01-06T11:10:17;7.70;99.90
27741;DHT22;15134;48.768;9.184;2024-01-06T11:12:44;7.60;99.90
27741;DHT22;15134;48.768;9.184;2024-01-06T11:15:09;7.60;99.90
27741;DHT22;15134;48.768;9.184;2024-01-06T11:17:54;7.60;99.90
27741;DHT22;15134;48.768;9.184;2024-01-06T11:20:23;7.60;99.90
27741;DHT22;15134;48.768;9.184;2024-01-06T11:22:50;7.60;99.90
27741;DHT22;15134;48.768;9.184;2024-01-06T11:25:17;7.70;99.90
27741;DHT22;15134;48.768;9.184;2024-01-06T11:27:45;7.90;99.90
27741;DHT22;15134;48.768;9.184;2024-01-06T11:30:24;8.00;99.90
27741;DHT22;15134;48.768;9.184;2024-01-06T11:32:56;7.90;99.90
27741;DHT22;15134;48.768;9.184;2024-01-06T11:35:28;8.00;99.90
27741;DHT22;15134;48.768;9.184;2024-01-06T11:37:57;7.90;99.90
27741;DHT22;15134;48.768;9.184;2024-01-06T11:40:36;7.70;99.90
27741;DHT22;15134;48.768;9.184;2024-01-06T11:43:10;7.60;99.90
27741;DHT22;15134;48.768;9.184;2024-01-06T11:45:41;7.50;99.90
27741;DHT22;15134;48.768;9.184;2024-01-06T11:48:09;7.40;99.90
27741;DHT22;15134;48.768;9.184;2024-01-06T11:50:39;7.30;99.90
27741;DHT22;15134;48.768;9.184;2024-01-06T11:53:07;7.30;99.90
27741;DHT22;15134;48.768;9.184;2024-01-06T11:55:33;7.30;99.90
27741;DHT22;15134;48.768;9.184;2024-01-06T11:58:01;7.20;99.90
27741;DHT22;15134;48.768;9.184;2024-01-06T12:00:34;7.30;99.90
27741;DHT22;15134;48.768;9.184;2024-01-06T12:03:02;7.30;99.90
27741;DHT22;15134;48.768;9.184;2024-01-06T12:05:28;7.30;99.90
27741;DHT22;15134;48.768;9.184;2024-01-06T12:07:56;7.30;99.90
27741;DHT22;15134;48.768;9.184;2024-01-06T12:10:23;7.30;99.90
27741;DHT22;15134;48.768;9.184;2024-01-06T12:13:00;7.30;99.90
27741;DHT22;15134;48.768;9.184;2024-01-06T12:15:28;7.40;99.90
27741;DHT22;15134;48.768;9.184;2024-01-06T12:17:54;7.50;99.90
27741;DHT22;15134;48.768;9.184;2024-01-06T12:20:21;7.40;99.90
27741;DHT22;15134;48.768;9.184;2024-01-06T12:22:48;7.30;99.90
27741;DHT22;15134;48.768;9.184;2024-01-06T12:25:14;7.30;99.90
27741;DHT22;15134;48.768;9.184;2024-01-06T12:27:44;7.40;99.90
27741;DHT22;15134;48.768;9.184;2024-01-06T12:30:18;7.50;99.90
27741;DHT22;15134;48.768;9.184;2024-01-06T12:32:47;7.50;99.90
27741;DHT22;15134;48.768;9.184;2024-01-06T12:35:15;7.60;99.90
27741;DHT22;15134;48.768;9.184;2024-01-06T12:37:42;7.60;99.90
27741;DHT22;15134;48.768;9.184;2024-01-06T12:40:15;7.60;99.90
27741;DHT22;15134;48.768;9.184;2024-01-06T12:42:43;7.50;99.90
27741;DHT22;15134;48.768;9.184;2024-01-06T12:45:10;7.50;99.90
27741;DHT22;15134;48.768;9.184;2024-01-06T12:47:36;7.50;99.90
27741;DHT22;15134;48.768;9.184;2024-01-06T12:50:02;7.40;99.90
27741;DHT22;15134;48.768;9.184;2024-01-06T12:52:30;7.40;99.90
27741;DHT22;15134;48.768;9.184;2024-01-06T12:54:55;7.30;99.90
27741;DHT22;15134;48.768;9.184;2024-01-06T12:57:21;7.40;99.90
27741;DHT22;15134;48.768;9.184;2024-01-06T12:59:47;7.40;99.90
27741;DHT22;15134;48.768;9.184;2024-01-06T13:02:13;7.40;99.90
27741;DHT22;15134;48.768;9.184;2024-01-06T13:04:38;7.40;99.90
27741;DHT22;15134;48.768;9.184;2024-01-06T13:07:04;7.30;99.90
27741;DHT22;15134;48.768;9.184;2024-01-06T13:09:30;7.20;99.90
27741;DHT22;15134;48.768;9.184;2024-01-06T13:11:56;7.10;99.90
27741;DHT22;15134;48.768;9.184;2024-01-06T13:14:26;7.10;99.90
27741;DHT22;15134;48.768;9.184;2024-01-06T13:16:52;7.10;99.90
27741;DHT22;15134;48.768;9.184;2024-01-06T13:19:18;7.10;99.90
27741;DHT22;15134;48.768;9.184;2024-01-06T13:21:45;7.10;99.90
27741;DHT22;15134;48.768;9.184;2024-01-06T13:24:10;7.20;99.90
27741;DHT22;15134;48.768;9.184;2024-01-06T13:26:37;7.20;99.90
27741;DHT22;15134;48.768;9.184;2024-01-06T13:29:03;7.30;99.90
27741;DHT22;15134;48.768;9.184;2024-01-06T13:31:29;7.20;99.90
27741;DHT22;15134;48.768;9.184;2024-01-06T13:33:56;7.10;99.90
27741;DHT22;15134;48.768;9.184;2024-01-06T13:36:22;7.10;99.90
27741;DHT22;15134;48.768;9.184;2024-01-06T13:38:48;7.10;99.90
27741;DHT22;15134;48.768;9.184;2024-01-06T13:41:14;7.20;99.90
27741;DHT22;15134;48.768;9.184;2024-01-06T13:43:40;7.20;99.90
27741;DHT22;15134;48.768;9.184;2024-01-06T13:46:06;7.20;99.90
27741;DHT22;15134;48.768;9.184;2024-01-06T13:48:32;7.10;99.90
27741;DHT22;15134;48.768;9.184;2024-01-06T13:50:59;7.00;99.90
27741;DHT22;15134;48.768;9.184;2024-01-06T13:53:25;6.80;99.90
27741;DHT22;15134;48.768;9.184;2024-01-06T13:55:51;6.80;99.90
27741;DHT22;15134;48.768;9.184;2024-01-06T13:58:16;6.90;99.90
27741;DHT22;15134;48.768;9.184;2024-01-06T14:00:44;6.90;99.90
27741;DHT22;15134;48.768;9.184;2024-01-06T14:03:10;7.00;99.90
27741;DHT22;15134;48.768;9.184;2024-01-06T14:05:36;7.10;99.90
27741;DHT22;15134;48.768;9.184;2024-01-06T14:08:03;7.10;99.90
27741;DHT22;15134;48.768;9.184;2024-01-06T14:10:28;7.20;99.90
27741;DHT22;15134;48.768;9.184;2024-01-06T14:12:56;7.10;99.90
27741;DHT22;15134;48.768;9.184;2024-01-06T14:15:22;6.90;99.90
27741;DHT22;15134;48.768;9.184;2024-01-06T14:17:47;6.90;99.90
27741;DHT22;15134;48.768;9.184;2024-01-06T14:20:17;7.00;99.90
27741;DHT22;15134;48.768;9.184;2024-01-06T14:22:45;7.00;99.90
27741;DHT22;15134;48.768;9.184;2024-01-06T14:25:12;7.00;99.90
27741;DHT22;15134;48.768;9.184;2024-01-06T14:27:38;7.10;99.90
27741;DHT22;15134;48.768;9.184;2024-01-06T14:30:04;7.10;99.90
27741;DHT22;15134;48.768;9.184;2024-01-06T14:32:32;7.10;99.90
27741;DHT22;15134;48.768;9.184;2024-01-06T14:34:58;7.00;99.90
27741;DHT22;15134;48.768;9.184;2024-01-06T14:37:24;7.00;99.90
27741;DHT22;15134;48.768;9.184;2024-01-06T14:39:50;7.00;99.90
27741;DHT22;15134;48.768;9.184;2024-01-06T14:42:15;7.00;99.90
27741;DHT22;15134;48.768;9.184;2024-01-06T14:44:44;7.00;99.90
27741;DHT22;15134;48.768;9.184;2024-01-06T14:47:10;7.10;99.90
27741;DHT22;15134;48.768;9.184;2024-01-06T14:49:37;7.10;99.90
27741;DHT22;15134;48.768;9.184;2024-01-06T14:52:03;7.20;99.90
27741;DHT22;15134;48.768;9.184;2024-01-06T14:54:28;7.20;99.90
27741;DHT22;15134;48.768;9.184;2024-01-06T14:56:57;7.30;99.90
27741;DHT22;15134;48.768;9.184;2024-01-06T14:59:24;7.30;99.90
27741;DHT22;15134;48.768;9.184;2024-01-06T15:01:49;7.30;99.90
27741;DHT22;15134;48.768;9.184;2024-01-06T15:04:15;7.30;99.90
27741;DHT22;15134;48.768;9.184;2024-01-06T15:06:44;7.30;99.90
27741;DHT22;15134;48.768;9.184;2024-01-06T15:09:09;7.20;99.90
27741;DHT22;15134;48.768;9.184;2024-01-06T15:11:35;7.30;99.90
27741;DHT22;15134;48.768;9.184;2024-01-06T15:14:01;7.30;99.90
27741;DHT22;15134;48.768;9.184;2024-01-06T15:16:30;7.20;99.90
27741;DHT22;15134;48.768;9.184;2024-01-06T15:18:56;7.10;99.90
27741;DHT22;15134;48.768;9.184;2024-01-06T15:21:25;7.10;99.90
27741;DHT22;15134;48.768;9.184;2024-01-06T15:23:53;7.10;99.90
27741;DHT22;15134;48.768;9.184;2024-01-06T15:26:22;7.10;99.90
27741;DHT22;15134;48.768;9.184;2024-01-06T15:28:48;7.00;99.90
27741;DHT22;15134;48.768;9.184;2024-01-06T15:31:14;6.90;99.90
27741;DHT22;15134;48.768;9.184;2024-01-06T15:33:40;7.00;99.90
27741;DHT22;15134;48.768;9.184;2024-01-06T15:36:08;7.00;99.90
27741;DHT22;15134;48.768;9.184;2024-01-06T15:38:34;6.90;99.90
27741;DHT22;15134;48.768;9.184;2024-01-06T15:41:00;6.90;99.90